Time;durP1;ratioP1;P1;durP2;ratioP2;P2;SDS_P1;SDS_P2;PMS_P1;PMS_P2;Temp;Humidity;BMP_temperature;BMP_pressure;BME280_temperature;BME280_humidity;BME280_pressure;Samples;Min_cycle;Max_cycle;Signal;HPM_P1;HPM_P2
2022/04/18 00:01:27;;;;;;;10.68;8.15;;;;;;;;;;5000649;28;92547;-76
2022/04/18 00:03:55;;;;;;;10.93;8.95;;;;;;;;;;5002585;28;92346;-77
2022/04/18 00:06:21;;;;;;;12.38;8.85;;;;;;;;;;4997317;28;93434;-76
2022/04/18 00:08:48;;;;;;;11.68;8.75;;;;;;;;;;4996100;28;93087;-75
2022/04/18 00:11:14;;;;;;;12.68;9.45;;;;;;;;;;4996608;28;92413;-75
2022/04/18 00:13:40;;;;;;;16.42;9.48;;;;;;;;;;4996705;28;93693;-75
2022/04/18 00:16:07;;;;;;;9.68;8.68;;;;;;;;;;4994404;28;96732;-76
2022/04/18 00:18:33;;;;;;;11.52;8.57;;;;;;;;;;4996101;28;92354;-75
2022/04/18 00:20:59;;;;;;;10.77;8.75;;;;;;;;;;4997079;28;93297;-75
2022/04/18 00:23:26;;;;;;;15.25;8.98;;;;;;;;;;4999337;28;93544;-75
2022/04/18 00:25:52;;;;;;;9.93;8.80;;;;;;;;;;4996483;28;93498;-74
2022/04/18 00:28:19;;;;;;;10.68;9.57;;;;;;;;;;4996379;28;93639;-76
2022/04/18 00:30:45;;;;;;;12.98;9.77;;;;;;;;;;4996389;28;92267;-75
2022/04/18 00:33:11;;;;;;;12.02;10.25;;;;;;;;;;4996404;28;93875;-75
2022/04/18 00:35:39;;;;;;;15.18;9.93;;;;;;;;;;4995213;28;93957;-77
2022/04/18 00:38:05;;;;;;;12.30;10.02;;;;;;;;;;4996229;28;92165;-76
2022/04/18 00:40:32;;;;;;;12.27;9.75;;;;;;;;;;4993831;28;94654;-76
2022/04/18 00:43:03;;;;;;;12.95;9.95;;;;;;;;;;4983887;28;95661;-75
2022/04/18 00:45:30;;;;;;;14.07;10.47;;;;;;;;;;4981646;28;95357;-76
2022/04/18 00:47:56;;;;;;;11.68;9.90;;;;;;;;;;4998541;28;93872;-75
2022/04/18 00:50:24;;;;;;;14.00;10.77;;;;;;;;;;4998275;28;92859;-76
2022/04/18 00:52:51;;;;;;;12.43;10.38;;;;;;;;;;4981375;28;93448;-75
2022/04/18 00:55:18;;;;;;;12.85;10.63;;;;;;;;;;4997079;28;96012;-74
2022/04/18 00:57:45;;;;;;;13.60;11.00;;;;;;;;;;4981344;28;91568;-74
2022/04/18 01:00:11;;;;;;;12.80;10.30;;;;;;;;;;4998210;28;92861;-76
2022/04/18 01:02:38;;;;;;;13.88;10.88;;;;;;;;;;4930874;28;95595;-76
2022/04/18 01:05:05;;;;;;;14.10;11.07;;;;;;;;;;4982842;28;94754;-77
2022/04/18 01:07:33;;;;;;;13.98;10.38;;;;;;;;;;4998491;28;92624;-76
2022/04/18 01:10:00;;;;;;;12.52;10.85;;;;;;;;;;4980537;28;92321;-76
2022/04/18 01:12:27;;;;;;;14.20;10.82;;;;;;;;;;4980338;28;95400;-76
2022/04/18 01:15:02;;;;;;;14.98;11.10;;;;;;;;;;4998241;28;93550;-76
2022/04/18 01:17:47;;;;;;;14.45;10.45;;;;;;;;;;4996634;28;92393;-76
2022/04/18 01:20:35;;;;;;;12.15;10.85;;;;;;;;;;4998090;28;94668;-76
2022/04/18 01:23:27;;;;;;;13.60;11.05;;;;;;;;;;4984341;28;92299;-77
2022/04/18 01:29:08;;;;;;;12.57;10.02;;;;;;;;;;4983275;28;94930;-76
2022/04/18 01:31:39;;;;;;;12.03;10.73;;;;;;;;;;4978612;28;94900;-77
2022/04/18 01:34:07;;;;;;;14.48;11.02;;;;;;;;;;4997921;28;95059;-76
2022/04/18 01:36:35;;;;;;;14.40;11.30;;;;;;;;;;4979975;28;97436;-76
2022/04/18 01:39:05;;;;;;;;;;;;;;;;;;4980607;28;92531;-75
2022/04/18 01:41:32;;;;;;;15.15;11.18;;;;;;;;;;4981117;28;95731;-75
2022/04/18 01:43:59;;;;;;;14.15;11.07;;;;;;;;;;4979467;28;95628;-74
2022/04/18 01:46:26;;;;;;;16.27;11.18;;;;;;;;;;4979733;28;92366;-76
2022/04/18 01:48:52;;;;;;;13.38;11.18;;;;;;;;;;4998455;28;93321;-76
2022/04/18 01:51:19;;;;;;;15.05;11.48;;;;;;;;;;4966783;28;95944;-76
2022/04/18 01:53:46;;;;;;;13.95;10.32;;;;;;;;;;4996787;28;93358;-75
2022/04/18 01:56:14;;;;;;;13.73;11.68;;;;;;;;;;4995855;28;95882;-75
2022/04/18 01:58:40;;;;;;;14.00;11.45;;;;;;;;;;4979549;28;93014;-76
2022/04/18 02:01:07;;;;;;;12.98;10.68;;;;;;;;;;4996371;28;95556;-75
2022/04/18 02:03:34;;;;;;;14.05;11.43;;;;;;;;;;4979526;28;95980;-76
2022/04/18 02:06:00;;;;;;;11.93;10.50;;;;;;;;;;4980235;28;92393;-74
2022/04/18 02:08:27;;;;;;;15.57;11.38;;;;;;;;;;4963781;28;95815;-75
2022/04/18 02:10:54;;;;;;;12.70;10.65;;;;;;;;;;4979411;28;94574;-76
2022/04/18 02:13:33;;;;;;;12.13;10.80;;;;;;;;;;5007863;28;93565;-75
2022/04/18 02:16:04;;;;;;;13.15;11.68;;;;;;;;;;4967509;28;95406;-77
2022/04/18 02:18:32;;;;;;;13.43;10.95;;;;;;;;;;4996817;28;92337;-76
2022/04/18 02:20:58;;;;;;;12.73;11.35;;;;;;;;;;4998329;28;94751;-75
2022/04/18 02:23:24;;;;;;;15.05;11.68;;;;;;;;;;4996128;28;96826;-75
2022/04/18 02:25:51;;;;;;;12.98;11.30;;;;;;;;;;4996587;28;92374;-75
2022/04/18 02:28:17;;;;;;;12.82;11.25;;;;;;;;;;4979610;28;95895;-75
2022/04/18 02:30:49;;;;;;;14.48;11.52;;;;;;;;;;4979623;28;95425;-75
2022/04/18 02:33:16;;;;;;;14.73;11.60;;;;;;;;;;4997303;28;92273;-75
2022/04/18 02:35:43;;;;;;;16.98;11.98;;;;;;;;;;4982403;28;94984;-76
2022/04/18 02:38:10;;;;;;;12.68;11.38;;;;;;;;;;4979356;28;91665;-75
2022/04/18 02:40:41;;;;;;;16.98;12.25;;;;;;;;;;4979404;28;95346;-75
2022/04/18 02:43:08;;;;;;;18.58;13.45;;;;;;;;;;4979024;28;95909;-76
2022/04/18 02:45:37;;;;;;;15.10;12.95;;;;;;;;;;4977598;28;94819;-75
2022/04/18 02:48:29;;;;;;;15.73;12.93;;;;;;;;;;4978691;28;98600;-75
2022/04/18 02:50:57;;;;;;;19.42;14.23;;;;;;;;;;4995420;28;95201;-75
2022/04/18 02:53:27;;;;;;;19.90;14.40;;;;;;;;;;4978686;28;93292;-75
2022/04/18 02:55:59;;;;;;;18.92;14.60;;;;;;;;;;4981931;28;95425;-75
2022/04/18 02:58:26;;;;;;;19.33;15.45;;;;;;;;;;4978846;28;92369;-74
2022/04/18 03:00:53;;;;;;;23.17;15.20;;;;;;;;;;4978952;28;94915;-75
2022/04/18 03:03:20;;;;;;;20.33;15.57;;;;;;;;;;4962690;28;94830;-75
2022/04/18 03:05:47;;;;;;;21.10;15.57;;;;;;;;;;4978799;28;92306;-76
2022/04/18 03:08:14;;;;;;;19.27;16.33;;;;;;;;;;4978671;28;96021;-75
2022/04/18 03:13:28;;;;;;;23.63;16.30;;;;;;;;;;4978627;28;92429;-76
2022/04/18 03:15:56;;;;;;;23.75;16.48;;;;;;;;;;4978841;28;95667;-75
2022/04/18 03:18:23;;;;;;;21.65;16.02;;;;;;;;;;4981738;28;94653;-74
2022/04/18 03:20:50;;;;;;;20.15;15.70;;;;;;;;;;4978524;28;95858;-75
2022/04/18 03:23:16;;;;;;;22.20;16.08;;;;;;;;;;4978379;28;96742;-74
2022/04/18 03:26:02;;;;;;;21.70;16.80;;;;;;;;;;4996251;28;92429;-75
2022/04/18 03:28:38;;;;;;;22.50;16.20;;;;;;;;;;4979476;28;94161;-76
2022/04/18 03:31:04;;;;;;;20.02;15.52;;;;;;;;;;4978501;28;95782;-75
2022/04/18 03:33:31;;;;;;;20.40;15.38;;;;;;;;;;4995070;28;92686;-75
2022/04/18 03:41:28;;;;;;;21.23;16.25;;;;;;;;;;4998101;28;92831;-76
2022/04/18 03:43:55;;;;;;;18.90;15.05;;;;;;;;;;4996072;28;93852;-74
2022/04/18 03:46:23;;;;;;;21.27;15.02;;;;;;;;;;4978381;28;92916;-74
2022/04/18 03:48:50;;;;;;;18.98;15.07;;;;;;;;;;4996383;28;92884;-75
2022/04/18 03:51:17;;;;;;;20.15;15.98;;;;;;;;;;4995507;28;94218;-75
2022/04/18 03:53:44;;;;;;;23.88;16.88;;;;;;;;;;4978694;28;91636;-74
2022/04/18 03:56:11;;;;;;;20.42;15.50;;;;;;;;;;4978360;28;94220;-74
2022/04/18 03:58:58;;;;;;;21.92;16.88;;;;;;;;;;4995047;28;93751;-74
2022/04/18 04:01:24;;;;;;;21.02;17.00;;;;;;;;;;4976621;28;94830;-75
2022/04/18 04:03:51;;;;;;;23.25;17.80;;;;;;;;;;4980908;28;97568;-76
2022/04/18 04:06:18;;;;;;;22.27;17.25;;;;;;;;;;4994482;28;92516;-75
2022/04/18 04:08:45;;;;;;;23.85;17.70;;;;;;;;;;4978512;28;94383;-75
2022/04/18 04:11:13;;;;;;;22.60;17.40;;;;;;;;;;4978143;28;95134;-75
2022/04/18 04:13:43;;;;;;;22.85;17.75;;;;;;;;;;4994604;28;92378;-76
2022/04/18 04:16:13;;;;;;;25.73;18.20;;;;;;;;;;4977898;28;95578;-75
2022/04/18 04:18:40;;;;;;;22.52;17.70;;;;;;;;;;4981878;28;94814;-74
2022/04/18 04:21:08;;;;;;;22.20;17.60;;;;;;;;;;4981466;28;92730;-75
2022/04/18 04:23:35;;;;;;;23.90;18.35;;;;;;;;;;4990109;28;95481;-75
2022/04/18 04:26:28;;;;;;;22.25;17.98;;;;;;;;;;5001112;28;95026;-76
2022/04/18 04:28:56;;;;;;;22.25;17.92;;;;;;;;;;4981143;28;98502;-74
2022/04/18 04:31:26;;;;;;;24.40;17.85;;;;;;;;;;4980934;28;96070;-74
2022/04/18 04:33:54;;;;;;;20.88;17.48;;;;;;;;;;4980966;28;92393;-75
2022/04/18 04:36:21;;;;;;;26.60;18.55;;;;;;;;;;4980852;28;95282;-73
2022/04/18 04:38:48;;;;;;;24.17;18.13;;;;;;;;;;4980580;28;95580;-75
2022/04/18 04:41:34;;;;;;;27.05;18.42;;;;;;;;;;4979500;28;92898;-74
2022/04/18 04:44:01;;;;;;;24.60;18.05;;;;;;;;;;4981114;28;95686;-74
2022/04/18 04:46:39;;;;;;;23.83;16.85;;;;;;;;;;4997260;28;95000;-74
2022/04/18 04:49:09;;;;;;;23.05;16.95;;;;;;;;;;4983832;28;92492;-77
2022/04/18 04:51:41;;;;;;;27.73;17.52;;;;;;;;;;4978855;28;97385;-74
2022/04/18 04:54:07;;;;;;;25.23;17.30;;;;;;;;;;4977275;28;92598;-74
2022/04/18 04:56:42;;;;;;;20.13;15.95;;;;;;;;;;4978711;28;93860;-75
2022/04/18 04:59:09;;;;;;;21.38;16.52;;;;;;;;;;4993889;28;95217;-75
2022/04/18 05:01:35;;;;;;;22.67;17.38;;;;;;;;;;4977324;28;93401;-75
2022/04/18 05:04:04;;;;;;;21.55;16.38;;;;;;;;;;4993950;28;95425;-75
2022/04/18 05:06:33;;;;;;;22.85;16.15;;;;;;;;;;4979993;28;96806;-75
2022/04/18 05:09:03;;;;;;;22.35;16.63;;;;;;;;;;4961275;28;92733;-76
2022/04/18 05:11:32;;;;;;;23.70;16.88;;;;;;;;;;4991993;28;96662;-76
2022/04/18 05:14:00;;;;;;;20.88;17.02;;;;;;;;;;4977232;28;93237;-75
2022/04/18 05:16:36;;;;;;;20.77;17.05;;;;;;;;;;4975785;28;95597;-75
2022/04/18 05:19:18;;;;;;;;;;;;;;;;;;4994095;28;94277;-75
2022/04/18 05:21:45;;;;;;;21.58;16.35;;;;;;;;;;4994389;28;92888;-76
2022/04/18 05:24:18;;;;;;;22.63;17.02;;;;;;;;;;4976779;28;95656;-76
2022/04/18 05:26:46;;;;;;;22.88;17.05;;;;;;;;;;4993651;28;95751;-75
2022/04/18 05:29:14;;;;;;;20.33;16.73;;;;;;;;;;4992274;28;94284;-75
2022/04/18 05:31:41;;;;;;;24.42;17.33;;;;;;;;;;4996111;28;96745;-76
2022/04/18 05:34:07;;;;;;;22.02;17.15;;;;;;;;;;4977406;28;92049;-75
2022/04/18 05:36:48;;;;;;;21.08;15.82;;;;;;;;;;4991792;28;92411;-76
2022/04/18 05:39:33;;;;;;;23.63;16.85;;;;;;;;;;4993339;28;96756;-76
2022/04/18 05:42:01;;;;;;;18.65;15.38;;;;;;;;;;4976078;28;94753;-76
2022/04/18 05:44:28;;;;;;;19.30;14.88;;;;;;;;;;4976631;28;97606;-75
2022/04/18 05:46:58;;;;;;;16.77;14.88;;;;;;;;;;4976758;28;96454;-75
2022/04/18 05:49:26;;;;;;;18.85;14.63;;;;;;;;;;4993317;28;92242;-74
2022/04/18 05:51:54;;;;;;;22.75;14.10;;;;;;;;;;4976814;28;96250;-73
2022/04/18 05:54:22;;;;;;;14.63;13.13;;;;;;;;;;4995570;28;95903;-74
2022/04/18 05:56:53;;;;;;;14.35;12.85;;;;;;;;;;4976384;28;95824;-75
2022/04/18 05:59:43;;;;;;;17.30;12.63;;;;;;;;;;4977845;28;93055;-75
2022/04/18 06:02:14;;;;;;;12.33;10.53;;;;;;;;;;4993228;28;92443;-72
2022/04/18 06:04:48;;;;;;;14.35;10.93;;;;;;;;;;4992758;28;94964;-75
2022/04/18 06:07:20;;;;;;;12.10;10.90;;;;;;;;;;4973275;28;95850;-75
2022/04/18 06:10:19;;;;;;;14.48;10.90;;;;;;;;;;4964458;28;92440;-75
2022/04/18 06:12:48;;;;;;;12.00;10.73;;;;;;;;;;4990288;28;95765;-73
2022/04/18 06:15:15;;;;;;;14.55;10.90;;;;;;;;;;4992532;28;94046;-76
2022/04/18 06:17:41;;;;;;;11.60;10.40;;;;;;;;;;4980670;28;92240;-75
2022/04/18 06:20:08;;;;;;;13.38;10.50;;;;;;;;;;4990560;28;95257;-75
2022/04/18 06:22:34;;;;;;;14.80;9.63;;;;;;;;;;4978745;28;92900;-76
2022/04/18 06:25:02;;;;;;;15.98;10.38;;;;;;;;;;4988464;28;95249;-73
2022/04/18 06:27:32;;;;;;;12.13;10.05;;;;;;;;;;4983750;28;95261;-77
2022/04/18 06:29:59;;;;;;;19.90;10.23;;;;;;;;;;4983017;28;92860;-77
2022/04/18 06:32:35;;;;;;;13.00;9.80;;;;;;;;;;4995751;28;94830;-78
2022/04/18 06:35:01;;;;;;;10.07;9.18;;;;;;;;;;4997536;28;95968;-74
2022/04/18 06:37:30;;;;;;;10.32;9.10;;;;;;;;;;4981147;28;92364;-74
2022/04/18 06:40:22;;;;;;;12.98;8.70;;;;;;;;;;4963083;28;93055;-74
2022/04/18 06:42:50;;;;;;;17.15;8.55;;;;;;;;;;5002279;28;92211;-74
2022/04/18 06:45:23;;;;;;;14.05;7.65;;;;;;;;;;4978691;28;95982;-74
2022/04/18 06:47:51;;;;;;;10.60;7.95;;;;;;;;;;5001405;28;95118;-74
2022/04/18 06:50:22;;;;;;;13.55;8.60;;;;;;;;;;4987732;28;91702;-74
2022/04/18 06:53:06;;;;;;;14.10;7.80;;;;;;;;;;4981196;28;92407;-75
2022/04/18 06:58:41;;;;;;;10.93;8.15;;;;;;;;;;5001659;28;94835;-76
2022/04/18 07:01:08;;;;;;;8.15;7.43;;;;;;;;;;4989509;28;97704;-77
2022/04/18 07:03:35;;;;;;;7.15;6.55;;;;;;;;;;4990677;28;92361;-77
2022/04/18 07:06:03;;;;;;;8.13;6.45;;;;;;;;;;5004280;28;95047;-76
2022/04/18 07:08:30;;;;;;;7.40;5.88;;;;;;;;;;4987210;28;95738;-77
2022/04/18 07:11:11;;;;;;;8.87;5.67;;;;;;;;;;4980123;28;92454;-77
2022/04/18 07:13:38;;;;;;;6.88;5.30;;;;;;;;;;5003751;28;95852;-77
2022/04/18 07:16:08;;;;;;;5.97;5.35;;;;;;;;;;5007640;28;94683;-77
2022/04/18 07:18:35;;;;;;;6.00;5.45;;;;;;;;;;4983832;28;92548;-76
2022/04/18 07:21:04;;;;;;;7.13;5.60;;;;;;;;;;5001846;28;95867;-77
2022/04/18 07:23:31;;;;;;;7.57;5.25;;;;;;;;;;4976306;28;99260;-75
2022/04/18 07:25:58;;;;;;;5.72;5.30;;;;;;;;;;5006768;28;98926;-76
2022/04/18 07:28:32;;;;;;;6.38;5.30;;;;;;;;;;4986912;28;95676;-76
2022/04/18 07:30:59;;;;;;;5.57;5.18;;;;;;;;;;4984178;28;92612;-77
2022/04/18 07:33:26;;;;;;;5.90;5.40;;;;;;;;;;4989147;28;92973;-77
2022/04/18 07:35:53;;;;;;;5.72;5.22;;;;;;;;;;4981557;28;96015;-76
2022/04/18 07:41:05;;;;;;;5.70;5.22;;;;;;;;;;5000947;28;92590;-77
2022/04/18 07:43:38;;;;;;;4.93;4.53;;;;;;;;;;4986800;28;96210;-75
2022/04/18 07:46:10;;;;;;;6.00;5.28;;;;;;;;;;4992891;28;92325;-76
2022/04/18 07:48:37;;;;;;;6.63;5.28;;;;;;;;;;5001248;28;98449;-78
2022/04/18 07:53:49;;;;;;;5.00;4.60;;;;;;;;;;5006603;28;95869;-76
2022/04/18 07:56:19;;;;;;;5.15;4.75;;;;;;;;;;4991722;28;94537;-78
2022/04/18 07:58:46;;;;;;;6.82;4.82;;;;;;;;;;4984411;28;92590;-78
2022/04/18 08:01:20;;;;;;;6.43;4.93;;;;;;;;;;4981473;28;95637;-77
2022/04/18 08:03:47;;;;;;;5.40;4.57;;;;;;;;;;4988753;28;94655;-76
2022/04/18 08:06:14;;;;;;;7.82;4.38;;;;;;;;;;4997228;28;91645;-76
2022/04/18 08:08:48;;;;;;;4.13;3.70;;;;;;;;;;4989693;28;95469;-75
2022/04/18 08:11:17;;;;;;;4.78;4.10;;;;;;;;;;5020105;28;92546;-76
2022/04/18 08:13:48;;;;;;;4.88;4.40;;;;;;;;;;4983735;28;95020;-75
2022/04/18 08:16:53;;;;;;;4.35;4.05;;;;;;;;;;4999556;28;92755;-75
2022/04/18 08:19:45;;;;;;;4.93;4.30;;;;;;;;;;5004123;28;92401;-75
2022/04/18 08:22:12;;;;;;;4.43;4.00;;;;;;;;;;4989045;28;95993;-75
2022/04/18 08:24:59;;;;;;;4.97;4.40;;;;;;;;;;5007875;28;93958;-73
2022/04/18 08:27:48;;;;;;;4.43;4.03;;;;;;;;;;5008059;28;92709;-76
2022/04/18 08:30:23;;;;;;;4.70;3.90;;;;;;;;;;5008519;28;95767;-75
2022/04/18 08:33:04;;;;;;;5.68;4.18;;;;;;;;;;4995437;28;93349;-74
2022/04/18 08:35:32;;;;;;;4.32;3.97;;;;;;;;;;5011307;28;94264;-81
2022/04/18 08:38:02;;;;;;;3.88;3.60;;;;;;;;;;5005177;28;93869;-76
2022/04/18 08:41:09;;;;;;;4.38;3.97;;;;;;;;;;5004426;28;94794;-76
2022/04/18 08:43:38;;;;;;;5.43;3.75;;;;;;;;;;4995832;28;97147;-76
2022/04/18 08:46:07;;;;;;;4.40;4.00;;;;;;;;;;4992088;28;94820;-73
2022/04/18 08:54:08;;;;;;;4.50;4.07;;;;;;;;;;5009179;28;94612;-77
2022/04/18 08:56:34;;;;;;;4.60;4.20;;;;;;;;;;4971405;28;93473;-75
2022/04/18 08:59:01;;;;;;;4.20;3.90;;;;;;;;;;5005718;28;94373;-75
2022/04/18 09:01:28;;;;;;;4.57;3.80;;;;;;;;;;5003806;28;93193;-75
2022/04/18 09:04:11;;;;;;;4.18;3.80;;;;;;;;;;4989988;28;95341;-69
2022/04/18 09:06:42;;;;;;;4.80;4.30;;;;;;;;;;4981390;28;98610;-78
2022/04/18 09:09:25;;;;;;;8.05;3.85;;;;;;;;;;4985852;28;92380;-77
2022/04/18 09:11:53;;;;;;;4.25;3.92;;;;;;;;;;5021298;28;95989;-76
2022/04/18 09:14:25;;;;;;;4.07;3.78;;;;;;;;;;4977035;28;96082;-76
2022/04/18 09:16:52;;;;;;;4.90;4.20;;;;;;;;;;4994913;28;92374;-78
2022/04/18 09:19:37;;;;;;;3.92;3.72;;;;;;;;;;5001897;28;92659;-77
2022/04/18 09:22:07;;;;;;;4.60;4.20;;;;;;;;;;4988817;28;92486;-76
2022/04/18 09:24:43;;;;;;;4.50;4.10;;;;;;;;;;4990530;28;95438;-77
2022/04/18 09:27:18;;;;;;;4.78;4.40;;;;;;;;;;4967322;28;95548;-75
2022/04/18 09:29:47;;;;;;;6.55;4.13;;;;;;;;;;5007090;28;92426;-78
2022/04/18 09:32:22;;;;;;;4.25;3.95;;;;;;;;;;4990189;28;95128;-75
2022/04/18 09:35:14;;;;;;;4.30;4.00;;;;;;;;;;5006247;28;94684;-76
2022/04/18 09:37:50;;;;;;;81.72;5.22;;;;;;;;;;5002219;28;93077;-77
2022/04/18 09:40:31;;;;;;;3.70;3.45;;;;;;;;;;5007322;28;94898;-76
2022/04/18 09:42:59;;;;;;;14.88;3.63;;;;;;;;;;4983497;28;92409;-76
2022/04/18 09:45:31;;;;;;;158.80;8.20;;;;;;;;;;4991952;28;95426;-75
2022/04/18 09:48:00;;;;;;;4.15;3.80;;;;;;;;;;4987812;28;95318;-79
2022/04/18 09:53:23;;;;;;;4.65;4.00;;;;;;;;;;5006469;28;93194;-75
2022/04/18 09:55:50;;;;;;;5.63;3.78;;;;;;;;;;5007137;28;93667;-76
2022/04/18 09:58:17;;;;;;;6.57;3.72;;;;;;;;;;4979733;28;94860;-74
2022/04/18 10:01:04;;;;;;;14.75;3.70;;;;;;;;;;5008071;28;96652;-75
2022/04/18 10:03:31;;;;;;;29.42;4.10;;;;;;;;;;5009578;28;93809;-76
2022/04/18 10:05:58;;;;;;;377.85;14.68;;;;;;;;;;5007941;28;93331;-78
2022/04/18 10:08:25;;;;;;;66.25;5.40;;;;;;;;;;5005761;28;94837;-78
2022/04/18 10:10:52;;;;;;;4.15;3.83;;;;;;;;;;5006820;28;92370;-79
2022/04/18 10:13:20;;;;;;;14.45;3.97;;;;;;;;;;5008244;28;93564;-79
2022/04/18 10:15:48;;;;;;;56.65;4.85;;;;;;;;;;5005423;28;92698;-78
2022/04/18 10:18:15;;;;;;;11.35;3.08;;;;;;;;;;5008996;28;93377;-76
2022/04/18 10:21:00;;;;;;;3.63;2.60;;;;;;;;;;4988091;28;95627;-76
2022/04/18 10:23:42;;;;;;;3.53;3.22;;;;;;;;;;4984971;28;97483;-77
2022/04/18 10:26:30;;;;;;;3.50;3.00;;;;;;;;;;4986304;28;92487;-77
2022/04/18 10:29:00;;;;;;;5.75;2.63;;;;;;;;;;5003220;28;93081;-77
2022/04/18 10:31:29;;;;;;;2.42;2.33;;;;;;;;;;5007241;28;92387;-76
2022/04/18 10:33:56;;;;;;;2.30;2.10;;;;;;;;;;4967755;28;93300;-79
2022/04/18 10:36:31;;;;;;;4.47;2.20;;;;;;;;;;5005074;28;93548;-78
2022/04/18 10:39:08;;;;;;;2.65;2.45;;;;;;;;;;5009431;28;92351;-80
2022/04/18 10:41:36;;;;;;;3.13;2.92;;;;;;;;;;5007351;28;93052;-76
2022/04/18 10:44:07;;;;;;;3.25;3.05;;;;;;;;;;5005710;28;94227;-75
2022/04/18 10:46:38;;;;;;;3.30;3.10;;;;;;;;;;5006919;28;92826;-76
2022/04/18 10:49:20;;;;;;;3.30;3.10;;;;;;;;;;5008300;28;94785;-76
2022/04/18 10:51:47;;;;;;;3.10;3.00;;;;;;;;;;5005497;28;92662;-78
2022/04/18 10:54:13;;;;;;;3.47;3.17;;;;;;;;;;5007174;28;93416;-77
2022/04/18 10:56:54;;;;;;;3.75;2.92;;;;;;;;;;5005467;28;97023;-77
2022/04/18 10:59:25;;;;;;;3.30;3.00;;;;;;;;;;5006977;28;92445;-76
2022/04/18 11:01:52;;;;;;;12.88;3.15;;;;;;;;;;5006771;28;94474;-75
2022/04/18 11:04:23;;;;;;;2.63;2.53;;;;;;;;;;4987669;28;97598;-75
2022/04/18 11:07:02;;;;;;;4.60;2.95;;;;;;;;;;5008657;28;91691;-74
2022/04/18 11:09:30;;;;;;;3.22;3.03;;;;;;;;;;5001260;28;92811;-76
2022/04/18 11:12:02;;;;;;;3.50;3.20;;;;;;;;;;5003658;28;93604;-75
2022/04/18 11:14:31;;;;;;;11.52;10.32;;;;;;;;;;4999471;28;97458;-76
2022/04/18 11:17:07;;;;;;;3.88;3.58;;;;;;;;;;5007381;28;93497;-74
2022/04/18 11:19:37;;;;;;;3.33;3.03;;;;;;;;;;5000546;28;92427;-77
2022/04/18 11:22:04;;;;;;;6.82;3.15;;;;;;;;;;5006552;28;94216;-77
2022/04/18 11:24:31;;;;;;;3.20;3.00;;;;;;;;;;5016247;28;93656;-77
2022/04/18 11:26:59;;;;;;;3.60;3.40;;;;;;;;;;5011093;28;92400;-81
2022/04/18 11:29:26;;;;;;;3.50;3.20;;;;;;;;;;5005670;28;93477;-76
2022/04/18 11:31:53;;;;;;;4.13;3.40;;;;;;;;;;4990035;28;94300;-75
2022/04/18 11:34:19;;;;;;;6.30;3.00;;;;;;;;;;5006386;28;93224;-77
2022/04/18 11:36:47;;;;;;;3.78;2.78;;;;;;;;;;4987527;28;92964;-75
2022/04/18 11:39:15;;;;;;;3.00;2.80;;;;;;;;;;5005586;28;94610;-76
2022/04/18 11:41:41;;;;;;;6.30;3.60;;;;;;;;;;5004408;28;95850;-77
2022/04/18 11:44:08;;;;;;;5.78;3.80;;;;;;;;;;5004185;28;93484;-77
2022/04/18 11:46:34;;;;;;;3.80;3.60;;;;;;;;;;5007215;28;92414;-78
2022/04/18 11:49:01;;;;;;;4.10;3.83;;;;;;;;;;5005209;28;93381;-76
2022/04/18 11:51:37;;;;;;;4.40;4.10;;;;;;;;;;5003867;28;93761;-77
2022/04/18 11:54:04;;;;;;;3.78;3.53;;;;;;;;;;5007898;28;92413;-77
2022/04/18 11:56:30;;;;;;;4.55;4.25;;;;;;;;;;5006329;28;92688;-76
2022/04/18 11:59:02;;;;;;;4.25;3.70;;;;;;;;;;5006343;28;92341;-78
2022/04/18 12:07:00;;;;;;;4.32;3.35;;;;;;;;;;5001680;28;92592;-77
2022/04/18 12:09:26;;;;;;;3.55;3.35;;;;;;;;;;5006710;28;93289;-76
2022/04/18 12:11:52;;;;;;;4.68;3.40;;;;;;;;;;4982084;28;96565;-78
2022/04/18 12:14:20;;;;;;;4.78;2.90;;;;;;;;;;5007307;28;92227;-76
2022/04/18 12:16:47;;;;;;;16.45;3.90;;;;;;;;;;5006905;28;93836;-76
2022/04/18 12:19:15;;;;;;;14.93;3.40;;;;;;;;;;5007004;28;92374;-76
2022/04/18 12:21:42;;;;;;;2.97;2.80;;;;;;;;;;5005328;28;93504;-78
2022/04/18 12:24:09;;;;;;;3.80;3.50;;;;;;;;;;5005343;28;93694;-80
2022/04/18 12:26:35;;;;;;;7.93;3.67;;;;;;;;;;4985832;28;93582;-78
2022/04/18 12:29:10;;;;;;;4.32;3.97;;;;;;;;;;4980011;28;94836;-83
2022/04/18 12:31:40;;;;;;;4.78;4.43;;;;;;;;;;4975029;28;95417;-80
2022/04/18 12:34:25;;;;;;;5.20;4.90;;;;;;;;;;4962869;28;92409;-83
2022/04/18 12:37:01;;;;;;;4.68;4.20;;;;;;;;;;4980602;28;97773;-78
2022/04/18 12:39:27;;;;;;;6.00;4.35;;;;;;;;;;5004941;28;94875;-78
2022/04/18 12:42:01;;;;;;;4.88;4.47;;;;;;;;;;5003527;28;93277;-78
2022/04/18 12:44:28;;;;;;;4.70;3.95;;;;;;;;;;5002385;28;92747;-78
2022/04/18 12:46:54;;;;;;;5.10;4.53;;;;;;;;;;4984674;28;91676;-81
2022/04/18 12:49:21;;;;;;;5.97;4.88;;;;;;;;;;4989648;28;95941;-81
2022/04/18 12:51:50;;;;;;;5.50;4.38;;;;;;;;;;4987864;28;93421;-79
2022/04/18 12:54:18;;;;;;;5.28;4.78;;;;;;;;;;4982780;28;99633;-77
2022/04/18 12:56:46;;;;;;;5.15;4.68;;;;;;;;;;4991471;28;95652;-78
2022/04/18 12:59:14;;;;;;;4.82;4.43;;;;;;;;;;5009529;28;93416;-76
2022/04/18 13:01:42;;;;;;;5.30;4.80;;;;;;;;;;5016448;28;92417;-77
2022/04/18 13:04:26;;;;;;;5.40;5.00;;;;;;;;;;5006256;28;96202;-75
2022/04/18 13:06:56;;;;;;;5.65;5.05;;;;;;;;;;5010548;28;93162;-78
2022/04/18 13:09:23;;;;;;;4.80;4.50;;;;;;;;;;5008923;28;92792;-80
2022/04/18 13:11:58;;;;;;;6.03;5.05;;;;;;;;;;4987305;28;92611;-80
2022/04/18 13:15:05;;;;;;;4.90;4.47;;;;;;;;;;4993710;28;92557;-81
2022/04/18 13:17:59;;;;;;;5.10;4.80;;;;;;;;;;4985176;28;94385;-78
2022/04/18 13:20:26;;;;;;;5.95;5.30;;;;;;;;;;5000170;28;98364;-77
2022/04/18 13:22:55;;;;;;;5.03;4.63;;;;;;;;;;4990843;28;92319;-76
2022/04/18 13:25:22;;;;;;;5.65;5.18;;;;;;;;;;5009158;28;94050;-79
2022/04/18 13:27:52;;;;;;;4.70;4.43;;;;;;;;;;5009002;28;93104;-77
2022/04/18 13:30:18;;;;;;;5.28;4.88;;;;;;;;;;4990770;28;94130;-78
2022/04/18 13:32:44;;;;;;;5.20;4.80;;;;;;;;;;5006097;28;93921;-75
2022/04/18 13:35:11;;;;;;;5.22;4.80;;;;;;;;;;5009165;28;92367;-76
2022/04/18 13:37:37;;;;;;;5.20;4.68;;;;;;;;;;5007603;28;94775;-76
2022/04/18 13:43:33;;;;;;;5.45;5.15;;;;;;;;;;4975832;28;92365;-82
2022/04/18 13:46:03;;;;;;;5.38;4.88;;;;;;;;;;4971325;28;94946;-78
2022/04/18 13:48:29;;;;;;;5.13;4.72;;;;;;;;;;4983764;28;92623;-79
2022/04/18 13:51:04;;;;;;;5.05;4.40;;;;;;;;;;5008030;28;92748;-81
2022/04/18 13:53:31;;;;;;;9.90;5.20;;;;;;;;;;4996205;28;94422;-82
2022/04/18 13:56:07;;;;;;;5.15;4.75;;;;;;;;;;4989238;28;92363;-81
2022/04/18 13:58:35;;;;;;;9.32;4.90;;;;;;;;;;4991729;28;94060;-76
2022/04/18 14:01:01;;;;;;;5.47;5.07;;;;;;;;;;5005537;28;93156;-79
2022/04/18 14:03:28;;;;;;;5.65;5.00;;;;;;;;;;4980999;28;91535;-76
2022/04/18 14:05:56;;;;;;;5.82;5.15;;;;;;;;;;5001641;28;93812;-75
2022/04/18 14:08:23;;;;;;;6.57;4.68;;;;;;;;;;5011672;28;93698;-73
2022/04/18 14:10:49;;;;;;;5.15;4.70;;;;;;;;;;5004765;28;94858;-71
2022/04/18 14:13:16;;;;;;;5.13;4.72;;;;;;;;;;5007550;28;93344;-72
2022/04/18 14:21:13;;;;;;;5.18;4.85;;;;;;;;;;5003986;28;93823;-72
2022/04/18 14:23:41;;;;;;;7.55;5.95;;;;;;;;;;5008034;28;92343;-72
2022/04/18 14:26:07;;;;;;;4.93;4.63;;;;;;;;;;4987866;28;96080;-76
2022/04/18 14:28:33;;;;;;;5.03;4.70;;;;;;;;;;5009301;28;93285;-76
2022/04/18 14:31:00;;;;;;;4.90;4.60;;;;;;;;;;5006934;28;92346;-76
2022/04/18 14:33:26;;;;;;;5.50;5.20;;;;;;;;;;5005955;28;94326;-78
2022/04/18 14:35:53;;;;;;;5.50;5.10;;;;;;;;;;5004264;28;95457;-79
2022/04/18 14:38:19;;;;;;;5.32;4.80;;;;;;;;;;5007152;28;96233;-80
2022/04/18 14:40:46;;;;;;;4.88;4.57;;;;;;;;;;5008256;28;93795;-77
2022/04/18 14:43:15;;;;;;;7.75;5.32;;;;;;;;;;4987590;28;92463;-77
2022/04/18 14:45:43;;;;;;;5.72;5.32;;;;;;;;;;5006919;28;93760;-78
2022/04/18 14:48:10;;;;;;;7.50;5.50;;;;;;;;;;4971229;28;92984;-75
2022/04/18 14:50:36;;;;;;;7.00;5.88;;;;;;;;;;5007512;28;92429;-76
2022/04/18 14:53:09;;;;;;;5.80;5.30;;;;;;;;;;5010926;28;94390;-76
2022/04/18 14:55:36;;;;;;;6.53;5.93;;;;;;;;;;5004940;28;92476;-80
2022/04/18 14:58:03;;;;;;;6.03;5.60;;;;;;;;;;5006262;28;93868;-75
2022/04/18 15:00:31;;;;;;;6.60;6.07;;;;;;;;;;5003787;28;95852;-76
2022/04/18 15:02:58;;;;;;;5.78;5.38;;;;;;;;;;4988517;28;92374;-76
2022/04/18 15:05:25;;;;;;;7.70;6.00;;;;;;;;;;5006636;28;93389;-75
2022/04/18 15:07:51;;;;;;;6.07;5.45;;;;;;;;;;5005421;28;93276;-75
2022/04/18 15:10:17;;;;;;;6.20;5.70;;;;;;;;;;5004190;28;92402;-76
2022/04/18 15:12:44;;;;;;;6.97;6.30;;;;;;;;;;5000876;28;93928;-76
2022/04/18 15:15:11;;;;;;;7.82;6.95;;;;;;;;;;5010932;28;92830;-78
2022/04/18 15:17:37;;;;;;;6.15;5.70;;;;;;;;;;4982450;28;94540;-76
2022/04/18 15:20:04;;;;;;;5.40;4.93;;;;;;;;;;5005131;28;93613;-75
2022/04/18 15:22:31;;;;;;;6.30;5.63;;;;;;;;;;5007103;28;92303;-75
2022/04/18 15:24:57;;;;;;;5.53;5.13;;;;;;;;;;5003592;28;95383;-78
2022/04/18 15:27:23;;;;;;;23.65;17.58;;;;;;;;;;5008168;28;93673;-76
2022/04/18 15:32:05;;;;;;;9.18;8.02;;;;;;;;;;5005082;28;92904;-76
2022/04/18 15:32:36;;;;;;;7.15;6.43;;;;;;;;;;5003684;28;93384;-76
2022/04/18 15:35:03;;;;;;;5.90;5.40;;;;;;;;;;5006131;28;95086;-75